createdAt,value
2022-07-27T00:01:08.177Z,15.90
2022-07-27T00:03:36.233Z,15.90
2022-07-27T00:06:07.654Z,15.80
2022-07-27T00:08:36.072Z,15.70
2022-07-27T00:11:04.355Z,15.60
2022-07-27T00:13:32.538Z,15.60
2022-07-27T00:16:01.085Z,15.60
2022-07-27T00:18:29.147Z,15.50
2022-07-27T00:20:56.869Z,15.60
2022-07-27T00:23:24.747Z,15.60
2022-07-27T00:25:52.912Z,15.60
2022-07-27T00:28:21.034Z,15.70
2022-07-27T00:30:47.914Z,15.60
2022-07-27T00:33:17.365Z,15.50
2022-07-27T00:35:45.332Z,15.50
2022-07-27T00:38:13.718Z,15.50
2022-07-27T00:40:40.875Z,15.50
2022-07-27T00:43:07.913Z,15.50
2022-07-27T00:45:35.752Z,15.60
2022-07-27T00:48:04.169Z,15.60
2022-07-27T00:50:32.672Z,15.70
2022-07-27T00:53:00.187Z,15.70
2022-07-27T00:55:29.007Z,15.80
2022-07-27T00:57:59.429Z,15.90
2022-07-27T01:00:28.926Z,15.90
2022-07-27T01:02:57.493Z,15.90
2022-07-27T01:05:35.795Z,15.90
2022-07-27T01:08:05.540Z,15.90
2022-07-27T01:10:34.096Z,16.00
2022-07-27T01:13:03.368Z,15.80
2022-07-27T01:15:36.811Z,15.90
2022-07-27T01:18:25.958Z,15.80
2022-07-27T01:20:55.330Z,15.80
2022-07-27T01:23:24.062Z,15.80
2022-07-27T01:25:51.995Z,15.80
2022-07-27T01:28:20.662Z,15.90
2022-07-27T01:30:48.035Z,16.00
2022-07-27T01:33:16.647Z,16.00
2022-07-27T01:35:43.962Z,15.90
2022-07-27T01:38:12.375Z,15.80
2022-07-27T01:40:41.210Z,15.80
2022-07-27T01:43:09.110Z,15.90
2022-07-27T01:45:37.010Z,16.00
2022-07-27T01:48:05.094Z,16.00
2022-07-27T01:50:32.427Z,15.90
2022-07-27T01:53:00.618Z,15.70
2022-07-27T01:55:27.925Z,15.50
2022-07-27T01:58:07.343Z,15.40
2022-07-27T02:00:35.655Z,15.40
2022-07-27T02:03:04.945Z,15.30
2022-07-27T02:05:32.042Z,15.30
2022-07-27T02:08:00.087Z,15.20
2022-07-27T02:10:27.112Z,15.10
2022-07-27T02:12:55.301Z,15.10
2022-07-27T02:15:25.794Z,15.10
2022-07-27T02:17:54.593Z,15.10
2022-07-27T02:20:25.139Z,15.00
2022-07-27T02:22:52.900Z,14.90
2022-07-27T02:25:20.971Z,15.00
2022-07-27T02:27:49.002Z,15.00
2022-07-27T02:30:17.679Z,15.10
2022-07-27T02:32:46.011Z,15.10
2022-07-27T02:35:18.934Z,15.00
2022-07-27T02:37:49.003Z,14.90
2022-07-27T02:40:17.488Z,14.90
2022-07-27T02:42:46.995Z,14.80
2022-07-27T02:45:15.387Z,14.70
2022-07-27T02:47:44.020Z,14.50
2022-07-27T02:50:11.176Z,14.60
2022-07-27T02:52:40.400Z,14.70
2022-07-27T02:55:08.794Z,14.80
2022-07-27T02:57:41.189Z,14.90
2022-07-27T03:00:12.810Z,15.00
2022-07-27T03:02:41.891Z,15.00
2022-07-27T03:05:10.701Z,15.00
2022-07-27T03:07:38.974Z,14.90
2022-07-27T03:10:07.126Z,14.80
2022-07-27T03:12:35.281Z,14.80
2022-07-27T03:15:09.727Z,14.80
2022-07-27T03:17:37.862Z,14.90
2022-07-27T03:20:08.792Z,14.90
2022-07-27T03:22:38.837Z,15.00
2022-07-27T03:25:08.657Z,15.00
2022-07-27T03:27:36.782Z,14.90
2022-07-27T03:30:06.334Z,14.90
2022-07-27T03:32:34.198Z,15.00
2022-07-27T03:35:03.533Z,15.00
2022-07-27T03:37:31.587Z,15.10
2022-07-27T03:39:59.838Z,15.20
2022-07-27T03:42:28.045Z,15.30
2022-07-27T03:44:56.084Z,15.20
2022-07-27T03:47:25.240Z,15.10
2022-07-27T03:49:53.511Z,15.00
2022-07-27T03:52:21.572Z,14.90
2022-07-27T03:54:50.358Z,14.80
2022-07-27T03:57:19.472Z,14.70
2022-07-27T03:59:47.625Z,14.70
2022-07-27T04:02:15.904Z,14.70
2022-07-27T04:04:44.242Z,14.70
2022-07-27T04:07:12.583Z,14.80
2022-07-27T04:09:39.852Z,14.80
2022-07-27T04:12:09.555Z,14.80
2022-07-27T04:14:38.431Z,14.90
2022-07-27T04:17:06.981Z,15.10
2022-07-27T04:19:35.272Z,15.20
2022-07-27T04:22:03.422Z,15.10
2022-07-27T04:24:31.552Z,15.20
2022-07-27T04:27:00.141Z,15.20
2022-07-27T04:29:28.373Z,15.30
2022-07-27T04:31:56.462Z,15.40
2022-07-27T04:34:25.547Z,15.40
2022-07-27T04:36:53.405Z,15.30
2022-07-27T04:39:22.510Z,15.20
2022-07-27T04:41:50.564Z,15.10
2022-07-27T04:44:18.721Z,15.00
2022-07-27T04:46:48.043Z,15.00
2022-07-27T04:49:16.840Z,15.20
2022-07-27T04:51:46.148Z,15.30
2022-07-27T04:54:14.726Z,15.30
2022-07-27T04:56:43.319Z,15.40
2022-07-27T04:59:11.768Z,15.50
2022-07-27T05:01:40.414Z,15.60
2022-07-27T05:04:08.767Z,15.80
2022-07-27T05:06:36.743Z,15.80
2022-07-27T05:09:04.908Z,15.90
2022-07-27T05:11:32.927Z,16.10
2022-07-27T05:14:00.907Z,16.20
2022-07-27T05:16:30.781Z,16.20
2022-07-27T05:18:59.211Z,16.10
2022-07-27T05:21:29.607Z,16.20
2022-07-27T05:23:57.992Z,16.50
2022-07-27T05:26:26.285Z,16.70
2022-07-27T05:28:54.984Z,16.90
2022-07-27T05:31:23.247Z,17.10
2022-07-27T05:33:58.231Z,17.30
2022-07-27T05:36:27.208Z,17.50
2022-07-27T05:38:55.277Z,17.40
2022-07-27T05:41:25.730Z,17.40
2022-07-27T05:43:55.238Z,17.50
2022-07-27T05:46:23.500Z,17.50
2022-07-27T05:48:51.559Z,17.60
2022-07-27T05:51:20.006Z,17.80
2022-07-27T05:53:48.317Z,18.00
2022-07-27T05:56:16.662Z,18.30
2022-07-27T05:58:44.841Z,18.40
2022-07-27T06:01:13.690Z,18.80
2022-07-27T06:03:42.917Z,19.40
2022-07-27T06:06:30.184Z,20.00
2022-07-27T06:08:58.744Z,20.40
2022-07-27T06:11:27.480Z,20.90
2022-07-27T06:13:56.114Z,21.30
2022-07-27T06:16:24.469Z,21.30
2022-07-27T06:18:52.415Z,21.10
2022-07-27T06:21:25.891Z,20.60
2022-07-27T06:23:55.143Z,20.70
2022-07-27T06:26:23.591Z,20.90
2022-07-27T06:28:52.858Z,20.70
2022-07-27T06:31:20.824Z,21.00
2022-07-27T06:33:50.979Z,21.10
2022-07-27T06:36:21.175Z,21.10
2022-07-27T06:38:49.721Z,21.20
2022-07-27T06:41:18.323Z,21.30
2022-07-27T06:43:46.936Z,21.00
2022-07-27T06:46:15.629Z,20.80
2022-07-27T06:48:44.056Z,21.40
2022-07-27T06:51:12.334Z,21.80
2022-07-27T06:53:40.411Z,21.90
2022-07-27T06:56:08.466Z,22.00
2022-07-27T06:58:37.720Z,22.10
2022-07-27T07:01:05.997Z,22.20
2022-07-27T07:03:34.680Z,22.00
2022-07-27T07:06:02.878Z,22.00
2022-07-27T07:08:31.204Z,21.90
2022-07-27T07:10:59.143Z,22.00
2022-07-27T07:13:27.496Z,21.90
2022-07-27T07:15:56.556Z,22.00
2022-07-27T07:18:24.581Z,22.20
2022-07-27T07:20:53.680Z,22.20
2022-07-27T07:23:21.863Z,22.10
2022-07-27T07:25:50.295Z,21.90
2022-07-27T07:28:22.334Z,22.00
2022-07-27T07:30:50.887Z,22.00
2022-07-27T07:33:19.880Z,22.00
2022-07-27T07:36:13.615Z,22.00
2022-07-27T07:38:36.130Z,22.20
2022-07-27T07:41:05.566Z,23.20
2022-07-27T07:43:35.882Z,23.70
2022-07-27T07:46:04.055Z,24.30
2022-07-27T07:48:32.992Z,24.30
2022-07-27T07:51:02.305Z,24.30
2022-07-27T07:53:30.729Z,24.40
2022-07-27T07:56:00.032Z,24.60
2022-07-27T07:58:28.686Z,25.00
2022-07-27T08:00:57.457Z,25.80
2022-07-27T08:03:25.601Z,25.90
2022-07-27T08:05:53.772Z,26.30
2022-07-27T08:08:24.306Z,26.30
2022-07-27T08:10:53.040Z,26.40
2022-07-27T08:13:22.393Z,26.60
2022-07-27T08:15:53.044Z,26.80
2022-07-27T08:18:21.655Z,27.10
2022-07-27T08:20:49.667Z,27.40
2022-07-27T08:23:18.050Z,28.20
2022-07-27T08:25:46.733Z,28.40
2022-07-27T08:28:15.951Z,28.10
2022-07-27T08:30:46.480Z,28.80
2022-07-27T08:33:14.636Z,29.30
2022-07-27T08:35:42.837Z,29.90
2022-07-27T08:38:11.323Z,29.60
2022-07-27T08:40:44.370Z,29.40
2022-07-27T08:43:24.396Z,28.90
2022-07-27T08:45:58.405Z,28.90
2022-07-27T08:48:28.223Z,29.20
2022-07-27T08:50:57.097Z,29.90
2022-07-27T08:53:25.574Z,30.30
2022-07-27T08:55:56.857Z,30.30
2022-07-27T08:58:24.931Z,30.50
2022-07-27T09:00:53.129Z,30.70
2022-07-27T09:03:23.340Z,31.10
2022-07-27T09:05:55.788Z,31.30
2022-07-27T09:08:28.810Z,31.20
2022-07-27T09:11:01.261Z,31.10
2022-07-27T09:13:33.460Z,31.10
2022-07-27T09:16:19.599Z,31.20
2022-07-27T09:18:58.034Z,30.70
2022-07-27T09:21:26.333Z,30.60
2022-07-27T09:23:59.030Z,30.70
2022-07-27T09:26:33.769Z,30.80
2022-07-27T09:29:14.097Z,31.90
2022-07-27T09:31:51.955Z,32.40
2022-07-27T09:34:32.731Z,32.90
2022-07-27T09:37:05.643Z,32.70
2022-07-27T09:39:34.143Z,32.80
2022-07-27T09:42:03.043Z,33.00
2022-07-27T09:44:43.878Z,32.50
2022-07-27T09:47:29.392Z,31.30
2022-07-27T09:50:16.383Z,30.10
2022-07-27T09:52:45.582Z,29.50
2022-07-27T09:55:14.256Z,29.70
2022-07-27T09:57:58.715Z,29.60
2022-07-27T10:00:27.358Z,29.30
2022-07-27T10:02:56.202Z,29.30
2022-07-27T10:05:24.460Z,29.40
2022-07-27T10:07:54.434Z,29.70
2022-07-27T10:10:23.824Z,30.10
2022-07-27T10:12:55.165Z,29.60
2022-07-27T10:15:25.199Z,28.90
2022-07-27T10:18:10.497Z,28.50
2022-07-27T10:20:47.241Z,28.80
2022-07-27T10:23:30.160Z,28.90
2022-07-27T10:26:18.780Z,28.70
2022-07-27T10:28:57.082Z,29.60
2022-07-27T10:31:28.736Z,30.00
2022-07-27T10:33:58.702Z,30.60
2022-07-27T10:36:32.779Z,30.40
2022-07-27T10:39:03.920Z,30.20
2022-07-27T10:41:35.825Z,29.50
2022-07-27T10:44:21.479Z,28.90
2022-07-27T10:46:57.694Z,28.50
2022-07-27T10:49:41.643Z,28.60
2022-07-27T10:52:49.578Z,29.70
2022-07-27T10:55:36.374Z,30.30
2022-07-27T10:58:09.165Z,30.90
2022-07-27T11:00:55.603Z,30.70
2022-07-27T11:03:34.200Z,29.70
2022-07-27T11:06:32.641Z,29.20
2022-07-27T11:11:49.752Z,29.10
2022-07-27T11:14:19.557Z,29.20
2022-07-27T11:17:33.449Z,29.20
2022-07-27T11:19:59.012Z,29.50
2022-07-27T11:25:30.796Z,29.10
2022-07-27T11:27:58.858Z,28.60
2022-07-27T11:30:28.957Z,28.40
2022-07-27T11:32:57.158Z,28.30
2022-07-27T11:35:25.438Z,27.90
2022-07-27T11:38:05.480Z,28.40
2022-07-27T11:40:59.875Z,28.50
2022-07-27T11:43:45.589Z,28.20
2022-07-27T11:46:25.005Z,27.80
2022-07-27T11:49:09.302Z,27.60
2022-07-27T11:51:44.247Z,27.40
2022-07-27T11:54:36.722Z,27.20
2022-07-27T11:57:13.084Z,27.40
2022-07-27T11:59:45.147Z,27.30
2022-07-27T12:02:18.010Z,27.20
2022-07-27T12:04:49.332Z,27.90
2022-07-27T12:07:22.161Z,29.10
2022-07-27T12:09:58.915Z,30.60
2022-07-27T12:12:29.227Z,31.20
2022-07-27T12:18:09.123Z,31.90
2022-07-27T12:20:37.809Z,31.60
2022-07-27T12:23:09.802Z,30.60
2022-07-27T12:25:39.077Z,30.50
2022-07-27T12:28:12.730Z,30.10
2022-07-27T12:30:48.213Z,29.40
2022-07-27T12:33:37.335Z,29.80
2022-07-27T12:36:08.022Z,31.00
2022-07-27T12:38:48.875Z,31.00
2022-07-27T12:41:35.474Z,30.80
2022-07-27T12:44:12.190Z,30.20
2022-07-27T12:47:01.881Z,29.60
2022-07-27T12:49:35.829Z,29.50
2022-07-27T12:52:11.117Z,29.10
2022-07-27T12:54:38.826Z,29.20
2022-07-27T12:57:07.118Z,30.50
2022-07-27T12:59:34.395Z,31.30
2022-07-27T13:02:02.725Z,31.80
2022-07-27T13:04:30.887Z,32.00
2022-07-27T13:06:58.400Z,33.00
2022-07-27T13:09:26.288Z,33.10
2022-07-27T13:12:13.897Z,32.20
2022-07-27T13:14:43.413Z,31.10
2022-07-27T13:17:10.567Z,30.00
2022-07-27T13:19:37.417Z,29.30
2022-07-27T13:22:05.795Z,29.90
2022-07-27T13:24:33.413Z,31.50
2022-07-27T13:27:01.618Z,31.90
2022-07-27T13:29:29.641Z,32.00
2022-07-27T13:31:57.786Z,31.60
2022-07-27T13:34:26.397Z,31.70
2022-07-27T13:36:54.707Z,31.90
2022-07-27T13:39:22.458Z,30.70
2022-07-27T13:41:55.199Z,29.90
2022-07-27T13:44:49.928Z,29.60
2022-07-27T13:47:11.738Z,29.30
2022-07-27T13:49:39.728Z,29.20
2022-07-27T13:52:09.380Z,29.30
2022-07-27T13:54:36.718Z,29.20
2022-07-27T13:57:04.887Z,30.10
2022-07-27T13:59:32.697Z,31.30
2022-07-27T14:02:00.920Z,31.60
2022-07-27T14:04:29.697Z,30.60
2022-07-27T14:06:59.764Z,29.40
2022-07-27T14:09:47.664Z,28.60
2022-07-27T14:12:15.644Z,28.40
2022-07-27T14:14:44.080Z,29.10
2022-07-27T14:17:12.730Z,29.60
2022-07-27T14:19:40.904Z,29.40
2022-07-27T14:22:11.743Z,29.30
2022-07-27T14:24:40.083Z,29.80
2022-07-27T14:27:07.706Z,29.90
2022-07-27T14:29:36.029Z,29.90
2022-07-27T14:32:04.033Z,29.10
2022-07-27T14:34:32.017Z,28.60
2022-07-27T14:36:59.739Z,28.60
2022-07-27T14:39:28.008Z,27.90
2022-07-27T14:41:55.665Z,27.70
2022-07-27T14:44:23.683Z,27.00
2022-07-27T14:46:51.661Z,26.60
2022-07-27T14:49:22.595Z,26.60
2022-07-27T14:51:51.341Z,26.40
2022-07-27T14:54:19.957Z,26.50
2022-07-27T14:56:47.643Z,26.70
2022-07-27T14:59:15.072Z,26.90
2022-07-27T15:01:43.885Z,27.20
2022-07-27T15:04:11.673Z,27.00
2022-07-27T15:06:39.990Z,26.70
2022-07-27T15:09:09.021Z,26.90
2022-07-27T15:11:37.766Z,27.30
2022-07-27T15:14:05.562Z,27.30
2022-07-27T15:16:35.677Z,27.30
2022-07-27T15:19:03.769Z,27.30
2022-07-27T15:21:31.940Z,27.20
2022-07-27T15:23:59.645Z,27.20
2022-07-27T15:26:27.989Z,26.80
2022-07-27T15:28:55.654Z,26.60
2022-07-27T15:31:26.102Z,26.30
2022-07-27T15:33:54.116Z,26.00
2022-07-27T15:36:33.142Z,25.90
2022-07-27T15:39:02.817Z,25.80
2022-07-27T15:41:32.995Z,25.70
2022-07-27T15:44:01.363Z,25.90
2022-07-27T15:46:28.937Z,25.90
2022-07-27T15:48:57.277Z,26.00
2022-07-27T15:51:26.162Z,25.90
2022-07-27T15:53:55.888Z,25.70
2022-07-27T15:56:25.031Z,25.50
2022-07-27T15:58:52.899Z,25.50
2022-07-27T16:01:21.514Z,25.50
2022-07-27T16:03:50.774Z,25.30
2022-07-27T16:06:19.190Z,25.00
2022-07-27T16:08:48.174Z,24.80
2022-07-27T16:11:16.118Z,24.80
2022-07-27T16:13:43.621Z,24.80
2022-07-27T16:16:30.310Z,24.80
2022-07-27T16:19:12.599Z,24.80
2022-07-27T16:21:53.321Z,24.70
2022-07-27T16:24:22.277Z,24.60
2022-07-27T16:26:50.613Z,24.50
2022-07-27T16:29:19.060Z,24.40
2022-07-27T16:31:47.824Z,24.50
2022-07-27T16:34:16.758Z,24.60
2022-07-27T16:36:45.102Z,24.80
2022-07-27T16:39:13.120Z,24.70
2022-07-27T16:41:41.517Z,24.60
2022-07-27T16:44:09.685Z,24.60
2022-07-27T16:46:38.132Z,24.50
2022-07-27T16:49:05.659Z,24.20
2022-07-27T16:51:33.679Z,23.90
2022-07-27T16:54:02.542Z,23.70
2022-07-27T16:56:30.895Z,23.60
2022-07-27T16:58:59.681Z,23.60
2022-07-27T17:01:29.070Z,23.50
2022-07-27T17:03:58.714Z,23.50
2022-07-27T17:06:27.752Z,23.60
2022-07-27T17:08:55.855Z,23.60
2022-07-27T17:11:25.124Z,23.60
2022-07-27T17:13:58.268Z,23.60
2022-07-27T17:16:28.830Z,23.70
2022-07-27T17:18:56.788Z,23.90
2022-07-27T17:21:25.344Z,23.90
2022-07-27T17:23:52.678Z,24.00
2022-07-27T17:26:19.953Z,24.10
2022-07-27T17:28:51.480Z,24.20
2022-07-27T17:31:21.100Z,24.30
2022-07-27T17:33:50.253Z,24.30
2022-07-27T17:36:17.764Z,24.20
2022-07-27T17:38:47.573Z,24.10
2022-07-27T17:41:21.910Z,23.80
2022-07-27T17:43:52.842Z,23.60
2022-07-27T17:46:22.914Z,23.50
2022-07-27T17:48:51.631Z,23.20
2022-07-27T17:51:23.409Z,23.10
2022-07-27T17:53:51.857Z,23.00
2022-07-27T17:56:19.825Z,22.80
2022-07-27T17:58:48.505Z,22.70
2022-07-27T18:01:15.942Z,22.70
2022-07-27T18:03:44.844Z,22.60
2022-07-27T18:06:13.460Z,22.40
2022-07-27T18:08:40.698Z,22.30
2022-07-27T18:11:13.300Z,22.20
2022-07-27T18:13:44.380Z,22.10
2022-07-27T18:16:13.258Z,21.90
2022-07-27T18:18:42.414Z,21.70
2022-07-27T18:21:11.006Z,21.60
2022-07-27T18:23:39.572Z,21.40
2022-07-27T18:26:06.776Z,21.30
2022-07-27T18:28:39.387Z,21.20
2022-07-27T18:31:09.604Z,21.00
2022-07-27T18:33:40.684Z,20.90
2022-07-27T18:36:07.838Z,20.80
2022-07-27T18:38:35.874Z,20.70
2022-07-27T18:41:03.935Z,20.70
2022-07-27T18:43:32.856Z,20.60
2022-07-27T18:46:01.062Z,20.50
2022-07-27T18:48:29.102Z,20.50
2022-07-27T18:50:57.005Z,20.40
2022-07-27T18:53:25.697Z,20.40
2022-07-27T18:55:56.584Z,20.30
2022-07-27T18:58:25.341Z,20.20
2022-07-27T19:00:52.984Z,20.20
2022-07-27T19:03:24.723Z,20.10
2022-07-27T19:05:56.420Z,20.10
2022-07-27T19:08:24.974Z,20.00
2022-07-27T19:10:53.713Z,20.00
2022-07-27T19:13:21.777Z,20.00
2022-07-27T19:15:49.773Z,20.00
2022-07-27T19:18:17.423Z,19.90
2022-07-27T19:20:44.697Z,19.80
2022-07-27T19:23:13.081Z,19.70
2022-07-27T19:25:41.002Z,19.60
2022-07-27T19:28:09.171Z,19.60
2022-07-27T19:30:38.763Z,19.40
2022-07-27T19:33:06.716Z,19.40
2022-07-27T19:35:35.154Z,19.30
2022-07-27T19:38:02.794Z,19.10
2022-07-27T19:40:46.738Z,19.00
2022-07-27T19:43:15.227Z,18.90
2022-07-27T19:45:43.471Z,18.80
2022-07-27T19:48:11.280Z,18.60
2022-07-27T19:50:40.375Z,18.50
2022-07-27T19:53:08.806Z,18.50
2022-07-27T19:55:35.831Z,18.40
2022-07-27T19:58:04.174Z,18.30
2022-07-27T20:00:32.044Z,18.20
2022-07-27T20:03:00.214Z,18.10
2022-07-27T20:05:28.812Z,18.00
2022-07-27T20:07:56.659Z,17.90
2022-07-27T20:10:25.230Z,17.80
2022-07-27T20:12:53.769Z,17.80
2022-07-27T20:15:22.535Z,17.70
2022-07-27T20:17:51.046Z,17.40
2022-07-27T20:20:19.605Z,17.40
2022-07-27T20:22:46.650Z,17.30
2022-07-27T20:25:15.323Z,17.20
2022-07-27T20:27:43.083Z,17.20
2022-07-27T20:30:14.524Z,17.10
2022-07-27T20:32:43.252Z,17.10
2022-07-27T20:35:10.886Z,17.00
2022-07-27T20:37:39.703Z,17.00
2022-07-27T20:40:11.262Z,17.00
2022-07-27T20:42:41.199Z,16.90
2022-07-27T20:45:12.694Z,17.00
2022-07-27T20:47:42.833Z,17.00
2022-07-27T20:50:13.267Z,17.10
2022-07-27T20:52:42.127Z,17.20
2022-07-27T20:55:12.004Z,17.30
2022-07-27T20:57:40.155Z,17.40
2022-07-27T21:00:08.768Z,17.50
2022-07-27T21:02:36.919Z,17.50
2022-07-27T21:05:06.481Z,17.50
2022-07-27T21:07:34.412Z,17.50
2022-07-27T21:10:01.250Z,17.50
2022-07-27T21:12:28.782Z,17.50
2022-07-27T21:14:56.788Z,17.50
2022-07-27T21:17:23.765Z,17.40
2022-07-27T21:19:51.873Z,17.30
2022-07-27T21:22:20.259Z,17.20
2022-07-27T21:24:49.510Z,17.20
2022-07-27T21:27:20.929Z,17.10
2022-07-27T21:29:50.160Z,17.10
2022-07-27T21:32:18.879Z,17.00
2022-07-27T21:34:45.914Z,17.00
2022-07-27T21:37:14.109Z,17.00
2022-07-27T21:39:42.064Z,16.80
2022-07-27T21:42:09.902Z,16.80
2022-07-27T21:44:37.430Z,16.80
2022-07-27T21:47:11.487Z,16.80
2022-07-27T21:49:42.151Z,16.70
2022-07-27T21:52:11.137Z,16.70
2022-07-27T21:54:38.993Z,16.70
2022-07-27T21:57:07.184Z,16.70
2022-07-27T21:59:34.913Z,16.60
2022-07-27T22:02:03.037Z,16.60
2022-07-27T22:04:30.786Z,16.50
2022-07-27T22:06:58.708Z,16.50
2022-07-27T22:09:25.804Z,16.50
2022-07-27T22:11:54.179Z,16.40
2022-07-27T22:14:23.801Z,16.40
2022-07-27T22:16:53.012Z,16.50
2022-07-27T22:19:21.241Z,16.50
2022-07-27T22:21:49.131Z,16.50
2022-07-27T22:24:17.616Z,16.40
2022-07-27T22:26:45.764Z,16.40
2022-07-27T22:29:12.821Z,16.30
2022-07-27T22:31:41.187Z,16.20
2022-07-27T22:34:08.769Z,16.10
2022-07-27T22:36:36.747Z,16.10
2022-07-27T22:39:03.896Z,16.00
2022-07-27T22:41:32.266Z,15.90
2022-07-27T22:43:59.743Z,15.90
2022-07-27T22:46:29.999Z,15.90
2022-07-27T22:48:58.032Z,15.80
2022-07-27T22:51:49.534Z,15.70
2022-07-27T22:54:14.111Z,15.70
2022-07-27T22:56:42.244Z,15.70
2022-07-27T22:59:09.794Z,15.60
2022-07-27T23:01:47.108Z,15.60
2022-07-27T23:04:16.986Z,15.50
2022-07-27T23:06:46.520Z,15.50
2022-07-27T23:09:15.485Z,15.50
2022-07-27T23:11:44.054Z,15.40
2022-07-27T23:14:12.924Z,15.40
2022-07-27T23:16:41.062Z,15.40
2022-07-27T23:19:09.512Z,15.30
2022-07-27T23:21:37.508Z,15.30
2022-07-27T23:24:05.901Z,15.20
2022-07-27T23:26:32.827Z,15.20
2022-07-27T23:29:02.461Z,15.10
2022-07-27T23:31:30.047Z,15.00
2022-07-27T23:33:58.530Z,15.00
2022-07-27T23:36:25.945Z,15.00
2022-07-27T23:38:54.339Z,15.00
2022-07-27T23:41:22.625Z,14.90
2022-07-27T23:43:50.812Z,14.80
2022-07-27T23:46:19.095Z,14.80
2022-07-27T23:48:46.856Z,14.80
2022-07-27T23:51:21.069Z,14.70
2022-07-27T23:53:48.901Z,14.70
2022-07-27T23:56:17.061Z,14.60
2022-07-27T23:58:45.924Z,14.60
